createdAt,value
2023-02-04T00:10:58.739Z,6.3
2023-02-04T00:22:58.717Z,6.2
2023-02-04T00:34:58.617Z,6.2
2023-02-04T00:46:58.618Z,6.1
2023-02-04T00:58:58.729Z,6.0
2023-02-04T01:10:58.738Z,6.0
2023-02-04T01:22:58.687Z,5.9
2023-02-04T01:34:58.697Z,5.9
2023-02-04T01:46:58.618Z,5.8
2023-02-04T01:58:58.718Z,5.7
2023-02-04T02:10:58.686Z,5.6
2023-02-04T02:22:58.726Z,5.6
2023-02-04T02:34:58.739Z,5.5
2023-02-04T02:46:58.627Z,5.4
2023-02-04T02:58:58.664Z,5.4
2023-02-04T03:10:58.706Z,5.4
2023-02-04T03:22:58.965Z,5.3
2023-02-04T03:34:58.711Z,5.2
2023-02-04T03:46:58.621Z,5.2
2023-02-04T03:58:58.700Z,5.1
2023-02-04T04:10:58.625Z,5.0
2023-02-04T04:22:58.722Z,4.9
2023-02-04T04:34:58.609Z,4.8
2023-02-04T04:46:58.655Z,4.9
2023-02-04T04:58:58.611Z,4.8
2023-02-04T05:10:58.617Z,4.9
2023-02-04T05:22:58.620Z,4.8
2023-02-04T05:34:58.695Z,4.8
2023-02-04T05:46:58.619Z,4.9
2023-02-04T05:58:58.738Z,4.8
2023-02-04T06:10:58.722Z,4.8
2023-02-04T06:22:58.686Z,4.8
2023-02-04T06:34:58.715Z,4.7
2023-02-04T06:46:58.619Z,4.7
2023-02-04T06:58:58.611Z,4.7
2023-02-04T07:10:58.701Z,4.7
2023-02-04T07:22:58.611Z,4.7
2023-02-04T07:34:58.617Z,4.7
2023-02-04T07:46:58.609Z,4.7
2023-02-04T07:58:58.709Z,4.8
2023-02-04T08:10:58.831Z,4.8
2023-02-04T08:22:58.891Z,5.0
2023-02-04T08:34:58.591Z,5.1
2023-02-04T08:46:58.725Z,5.2
2023-02-04T08:58:58.735Z,5.3
2023-02-04T09:10:58.710Z,5.4
2023-02-04T09:22:58.631Z,5.6
2023-02-04T09:34:58.715Z,5.6
2023-02-04T09:46:58.809Z,5.6
2023-02-04T09:58:58.727Z,5.9
2023-02-04T10:10:58.613Z,6.1
2023-02-04T10:22:58.683Z,6.5
2023-02-04T10:34:58.727Z,6.6
2023-02-04T10:46:58.673Z,6.8
2023-02-04T10:58:58.726Z,6.6
2023-02-04T11:10:58.620Z,6.4
2023-02-04T11:22:58.675Z,6.8
2023-02-04T11:34:58.690Z,6.8
2023-02-04T11:46:58.774Z,6.6
2023-02-04T11:58:58.706Z,6.5
2023-02-04T12:10:58.621Z,7.4
2023-02-04T12:22:58.729Z,7.5
2023-02-04T12:34:59.095Z,7.5
2023-02-04T12:46:58.813Z,7.4
2023-02-04T12:58:58.688Z,7.4
2023-02-04T13:10:58.720Z,7.2
2023-02-04T13:22:58.665Z,7.5
2023-02-04T13:34:58.696Z,7.5
2023-02-04T13:46:58.720Z,7.3
2023-02-04T13:58:58.662Z,7.4
2023-02-04T14:10:58.627Z,7.3
2023-02-04T14:22:58.612Z,7.4
2023-02-04T14:34:58.729Z,7.5
2023-02-04T14:46:58.745Z,7.3
2023-02-04T14:58:58.665Z,7.1
2023-02-04T15:10:58.697Z,7.1
2023-02-04T15:23:00.655Z,6.9
2023-02-04T15:34:58.609Z,6.9
2023-02-04T15:46:58.671Z,6.7
2023-02-04T15:59:00.961Z,6.6
2023-02-04T16:10:58.641Z,6.5
2023-02-04T16:22:58.713Z,6.3
2023-02-04T16:34:58.730Z,6.1
2023-02-04T16:46:58.611Z,5.9
2023-02-04T16:58:58.720Z,5.5
2023-02-04T17:10:58.627Z,5.3
2023-02-04T17:22:58.615Z,5.1
2023-02-04T17:34:58.712Z,5.0
2023-02-04T17:46:58.722Z,5.1
2023-02-04T17:58:58.613Z,4.5
2023-02-04T18:10:58.617Z,4.2
2023-02-04T18:22:58.701Z,4.5
2023-02-04T18:34:58.963Z,4.4
2023-02-04T18:46:58.735Z,4.3
2023-02-04T18:58:58.723Z,4.0
2023-02-04T19:10:58.720Z,4.0
2023-02-04T19:22:58.692Z,3.3
2023-02-04T19:34:58.611Z,3.1
2023-02-04T19:46:58.729Z,3.0
2023-02-04T19:58:58.682Z,2.4
2023-02-04T20:10:58.612Z,3.2
2023-02-04T20:22:58.734Z,2.5
2023-02-04T20:34:58.732Z,2.7
2023-02-04T20:46:58.620Z,2.7
2023-02-04T20:58:58.734Z,2.7
2023-02-04T21:10:58.619Z,2.5
2023-02-04T21:22:58.719Z,2.3
2023-02-04T21:34:58.697Z,2.6
2023-02-04T21:46:58.618Z,2.9
2023-02-04T21:58:58.613Z,2.9
2023-02-04T22:10:58.628Z,2.8
2023-02-04T22:22:58.702Z,2.9
2023-02-04T22:34:58.616Z,2.9
2023-02-04T22:46:58.844Z,2.9
2023-02-04T22:58:58.702Z,2.6
2023-02-04T23:10:58.617Z,2.4
2023-02-04T23:22:58.624Z,2.5
2023-02-04T23:34:58.610Z,2.7
2023-02-04T23:46:58.671Z,2.7
2023-02-04T23:58:58.634Z,2.7
